sensor_id;sensor_type;location;lat;lon;timestamp;temperature;humidity
72128;DHT22;60000;51.030;7.024;2023-05-07T00:01:02;14.52;86.88
72128;DHT22;60000;51.030;7.024;2023-05-07T00:03:27;14.51;86.80
72128;DHT22;60000;51.030;7.024;2023-05-07T00:05:53;14.52;86.73
72128;DHT22;60000;51.030;7.024;2023-05-07T00:08:18;14.54;86.70
72128;DHT22;60000;51.030;7.024;2023-05-07T00:10:44;14.52;86.81
72128;DHT22;60000;51.030;7.024;2023-05-07T00:13:09;14.54;86.57
72128;DHT22;60000;51.030;7.024;2023-05-07T00:15:35;14.52;86.47
72128;DHT22;60000;51.030;7.024;2023-05-07T00:18:00;14.52;86.63
72128;DHT22;60000;51.030;7.024;2023-05-07T00:20:26;14.55;86.64
72128;DHT22;60000;51.030;7.024;2023-05-07T00:22:51;14.55;86.68
72128;DHT22;60000;51.030;7.024;2023-05-07T00:25:16;14.57;86.52
72128;DHT22;60000;51.030;7.024;2023-05-07T00:27:42;14.57;86.67
72128;DHT22;60000;51.030;7.024;2023-05-07T00:30:08;14.55;86.39
72128;DHT22;60000;51.030;7.024;2023-05-07T00:32:33;14.55;86.41
72128;DHT22;60000;51.030;7.024;2023-05-07T00:34:58;14.57;86.36
72128;DHT22;60000;51.030;7.024;2023-05-07T00:37:24;14.52;86.19
72128;DHT22;60000;51.030;7.024;2023-05-07T00:39:49;14.51;86.20
72128;DHT22;60000;51.030;7.024;2023-05-07T00:42:14;14.51;86.30
72128;DHT22;60000;51.030;7.024;2023-05-07T00:44:41;14.49;86.31
72128;DHT22;60000;51.030;7.024;2023-05-07T00:47:06;14.48;86.38
72128;DHT22;60000;51.030;7.024;2023-05-07T00:49:38;14.48;86.47
72128;DHT22;60000;51.030;7.024;2023-05-07T00:52:04;14.46;86.49
72128;DHT22;60000;51.030;7.024;2023-05-07T00:54:30;14.44;86.34
72128;DHT22;60000;51.030;7.024;2023-05-07T00:56:56;14.46;86.48
72128;DHT22;60000;51.030;7.024;2023-05-07T00:59:21;14.44;86.35
72128;DHT22;60000;51.030;7.024;2023-05-07T01:01:46;14.42;86.46
72128;DHT22;60000;51.030;7.024;2023-05-07T01:04:12;14.42;86.39
72128;DHT22;60000;51.030;7.024;2023-05-07T01:06:37;14.38;86.39
72128;DHT22;60000;51.030;7.024;2023-05-07T01:09:03;14.40;86.37
72128;DHT22;60000;51.030;7.024;2023-05-07T01:11:29;14.37;86.39
72128;DHT22;60000;51.030;7.024;2023-05-07T01:13:55;14.38;86.46
72128;DHT22;60000;51.030;7.024;2023-05-07T01:16:21;14.37;86.41
72128;DHT22;60000;51.030;7.024;2023-05-07T01:18:47;14.37;86.47
72128;DHT22;60000;51.030;7.024;2023-05-07T01:21:15;14.37;86.51
72128;DHT22;60000;51.030;7.024;2023-05-07T01:23:41;14.34;86.38
72128;DHT22;60000;51.030;7.024;2023-05-07T01:26:07;14.31;86.35
72128;DHT22;60000;51.030;7.024;2023-05-07T01:28:32;14.31;86.28
72128;DHT22;60000;51.030;7.024;2023-05-07T01:31:01;14.30;86.26
72128;DHT22;60000;51.030;7.024;2023-05-07T01:33:29;14.28;86.29
72128;DHT22;60000;51.030;7.024;2023-05-07T01:35:57;14.28;86.24
72128;DHT22;60000;51.030;7.024;2023-05-07T01:38:25;14.28;86.13
72128;DHT22;60000;51.030;7.024;2023-05-07T01:40:52;14.28;86.08
72128;DHT22;60000;51.030;7.024;2023-05-07T01:43:18;14.27;85.93
72128;DHT22;60000;51.030;7.024;2023-05-07T01:45:44;14.24;85.94
72128;DHT22;60000;51.030;7.024;2023-05-07T01:48:11;14.25;85.95
72128;DHT22;60000;51.030;7.024;2023-05-07T01:50:38;14.24;86.00
72128;DHT22;60000;51.030;7.024;2023-05-07T01:53:03;14.20;85.72
72128;DHT22;60000;51.030;7.024;2023-05-07T01:55:29;14.21;85.77
72128;DHT22;60000;51.030;7.024;2023-05-07T01:57:54;14.20;85.73
72128;DHT22;60000;51.030;7.024;2023-05-07T02:00:20;14.20;85.62
72128;DHT22;60000;51.030;7.024;2023-05-07T02:02:45;14.20;85.58
72128;DHT22;60000;51.030;7.024;2023-05-07T02:05:11;14.18;85.58
72128;DHT22;60000;51.030;7.024;2023-05-07T02:07:36;14.16;85.51
72128;DHT22;60000;51.030;7.024;2023-05-07T02:10:01;14.14;85.40
72128;DHT22;60000;51.030;7.024;2023-05-07T02:12:28;14.16;85.63
72128;DHT22;60000;51.030;7.024;2023-05-07T02:14:53;14.10;85.54
72128;DHT22;60000;51.030;7.024;2023-05-07T02:17:18;14.07;85.52
72128;DHT22;60000;51.030;7.024;2023-05-07T02:19:44;14.07;85.50
72128;DHT22;60000;51.030;7.024;2023-05-07T02:22:09;14.07;85.44
72128;DHT22;60000;51.030;7.024;2023-05-07T02:24:35;14.03;85.36
72128;DHT22;60000;51.030;7.024;2023-05-07T02:27:00;14.03;85.26
72128;DHT22;60000;51.030;7.024;2023-05-07T02:29:26;13.96;85.08
72128;DHT22;60000;51.030;7.024;2023-05-07T02:31:51;13.91;85.18
72128;DHT22;60000;51.030;7.024;2023-05-07T02:34:18;13.84;85.24
72128;DHT22;60000;51.030;7.024;2023-05-07T02:36:44;13.83;85.23
72128;DHT22;60000;51.030;7.024;2023-05-07T02:39:09;13.79;85.13
72128;DHT22;60000;51.030;7.024;2023-05-07T02:41:34;13.73;85.13
72128;DHT22;60000;51.030;7.024;2023-05-07T02:43:59;13.69;85.24
72128;DHT22;60000;51.030;7.024;2023-05-07T02:46:25;13.61;85.44
72128;DHT22;60000;51.030;7.024;2023-05-07T02:48:50;13.56;85.38
72128;DHT22;60000;51.030;7.024;2023-05-07T02:51:19;13.51;85.62
72128;DHT22;60000;51.030;7.024;2023-05-07T02:53:44;13.42;85.66
72128;DHT22;60000;51.030;7.024;2023-05-07T02:56:10;13.36;85.81
72128;DHT22;60000;51.030;7.024;2023-05-07T02:58:35;13.32;86.12
72128;DHT22;60000;51.030;7.024;2023-05-07T03:01:00;13.31;86.03
72128;DHT22;60000;51.030;7.024;2023-05-07T03:03:25;13.28;86.27
72128;DHT22;60000;51.030;7.024;2023-05-07T03:05:51;13.26;86.73
72128;DHT22;60000;51.030;7.024;2023-05-07T03:08:16;13.28;87.05
72128;DHT22;60000;51.030;7.024;2023-05-07T03:10:41;13.28;87.14
72128;DHT22;60000;51.030;7.024;2023-05-07T03:13:07;13.28;87.05
72128;DHT22;60000;51.030;7.024;2023-05-07T03:15:32;13.25;87.03
72128;DHT22;60000;51.030;7.024;2023-05-07T03:17:57;13.24;86.97
72128;DHT22;60000;51.030;7.024;2023-05-07T03:20:23;13.19;86.96
72128;DHT22;60000;51.030;7.024;2023-05-07T03:22:48;13.16;87.17
72128;DHT22;60000;51.030;7.024;2023-05-07T03:25:13;13.11;87.37
72128;DHT22;60000;51.030;7.024;2023-05-07T03:27:42;13.08;87.37
72128;DHT22;60000;51.030;7.024;2023-05-07T03:30:08;13.05;87.52
72128;DHT22;60000;51.030;7.024;2023-05-07T03:32:34;13.00;87.34
72128;DHT22;60000;51.030;7.024;2023-05-07T03:35:00;12.94;87.40
72128;DHT22;60000;51.030;7.024;2023-05-07T03:37:25;12.93;87.57
72128;DHT22;60000;51.030;7.024;2023-05-07T03:39:51;12.88;87.74
72128;DHT22;60000;51.030;7.024;2023-05-07T03:42:16;12.84;87.71
72128;DHT22;60000;51.030;7.024;2023-05-07T03:44:41;12.81;87.65
72128;DHT22;60000;51.030;7.024;2023-05-07T03:47:07;12.79;87.86
72128;DHT22;60000;51.030;7.024;2023-05-07T03:49:33;12.79;88.07
72128;DHT22;60000;51.030;7.024;2023-05-07T03:51:58;12.72;88.12
72128;DHT22;60000;51.030;7.024;2023-05-07T03:54:23;12.73;88.53
72128;DHT22;60000;51.030;7.024;2023-05-07T03:56:48;12.72;88.28
72128;DHT22;60000;51.030;7.024;2023-05-07T03:59:14;12.68;88.43
72128;DHT22;60000;51.030;7.024;2023-05-07T04:01:39;12.70;88.61
72128;DHT22;60000;51.030;7.024;2023-05-07T04:04:05;12.74;88.86
72128;DHT22;60000;51.030;7.024;2023-05-07T04:06:30;12.74;89.08
72128;DHT22;60000;51.030;7.024;2023-05-07T04:08:56;12.74;89.12
72128;DHT22;60000;51.030;7.024;2023-05-07T04:11:21;12.76;89.17
72128;DHT22;60000;51.030;7.024;2023-05-07T04:13:46;12.77;89.10
72128;DHT22;60000;51.030;7.024;2023-05-07T04:16:12;12.79;89.13
72128;DHT22;60000;51.030;7.024;2023-05-07T04:18:37;12.79;89.14
72128;DHT22;60000;51.030;7.024;2023-05-07T04:21:03;12.80;89.22
72128;DHT22;60000;51.030;7.024;2023-05-07T04:23:28;12.81;89.21
72128;DHT22;60000;51.030;7.024;2023-05-07T04:25:54;12.86;89.27
72128;DHT22;60000;51.030;7.024;2023-05-07T04:28:19;12.90;89.33
72128;DHT22;60000;51.030;7.024;2023-05-07T04:30:45;12.91;89.40
72128;DHT22;60000;51.030;7.024;2023-05-07T04:33:11;12.95;89.32
72128;DHT22;60000;51.030;7.024;2023-05-07T04:35:36;13.03;89.34
72128;DHT22;60000;51.030;7.024;2023-05-07T04:38:02;13.03;89.25
72128;DHT22;60000;51.030;7.024;2023-05-07T04:40:27;13.08;89.08
72128;DHT22;60000;51.030;7.024;2023-05-07T04:42:52;13.10;89.09
72128;DHT22;60000;51.030;7.024;2023-05-07T04:45:18;13.15;88.93
72128;DHT22;60000;51.030;7.024;2023-05-07T04:47:44;13.22;88.97
72128;DHT22;60000;51.030;7.024;2023-05-07T04:50:09;13.28;88.84
72128;DHT22;60000;51.030;7.024;2023-05-07T04:52:35;13.34;88.81
72128;DHT22;60000;51.030;7.024;2023-05-07T04:55:01;13.41;88.59
72128;DHT22;60000;51.030;7.024;2023-05-07T04:57:27;13.46;88.33
72128;DHT22;60000;51.030;7.024;2023-05-07T04:59:55;13.52;88.32
72128;DHT22;60000;51.030;7.024;2023-05-07T05:02:21;13.62;87.92
72128;DHT22;60000;51.030;7.024;2023-05-07T05:04:46;13.66;87.83
72128;DHT22;60000;51.030;7.024;2023-05-07T05:07:11;13.69;87.33
72128;DHT22;60000;51.030;7.024;2023-05-07T05:09:37;13.75;87.29
72128;DHT22;60000;51.030;7.024;2023-05-07T05:12:02;13.82;87.22
72128;DHT22;60000;51.030;7.024;2023-05-07T05:14:29;13.86;86.82
72128;DHT22;60000;51.030;7.024;2023-05-07T05:16:54;13.94;86.54
72128;DHT22;60000;51.030;7.024;2023-05-07T05:19:20;14.02;86.53
72128;DHT22;60000;51.030;7.024;2023-05-07T05:21:45;14.06;85.94
72128;DHT22;60000;51.030;7.024;2023-05-07T05:24:10;14.13;86.08
72128;DHT22;60000;51.030;7.024;2023-05-07T05:26:35;14.21;86.09
72128;DHT22;60000;51.030;7.024;2023-05-07T05:29:01;14.31;85.68
72128;DHT22;60000;51.030;7.024;2023-05-07T05:31:26;14.38;85.32
72128;DHT22;60000;51.030;7.024;2023-05-07T05:33:51;14.44;85.09
72128;DHT22;60000;51.030;7.024;2023-05-07T05:36:17;14.49;84.69
72128;DHT22;60000;51.030;7.024;2023-05-07T05:38:43;14.54;84.54
72128;DHT22;60000;51.030;7.024;2023-05-07T05:41:09;14.61;84.02
72128;DHT22;60000;51.030;7.024;2023-05-07T05:43:35;14.67;83.75
72128;DHT22;60000;51.030;7.024;2023-05-07T05:46:00;14.73;83.43
72128;DHT22;60000;51.030;7.024;2023-05-07T05:48:31;14.81;83.54
72128;DHT22;60000;51.030;7.024;2023-05-07T05:50:57;14.88;83.38
72128;DHT22;60000;51.030;7.024;2023-05-07T05:53:22;14.92;83.12
72128;DHT22;60000;51.030;7.024;2023-05-07T05:55:48;14.99;83.03
72128;DHT22;60000;51.030;7.024;2023-05-07T05:58:13;15.04;82.74
72128;DHT22;60000;51.030;7.024;2023-05-07T06:00:40;15.10;82.34
72128;DHT22;60000;51.030;7.024;2023-05-07T06:03:05;15.16;81.99
72128;DHT22;60000;51.030;7.024;2023-05-07T06:05:31;15.18;81.39
72128;DHT22;60000;51.030;7.024;2023-05-07T06:07:56;15.26;81.45
72128;DHT22;60000;51.030;7.024;2023-05-07T06:10:24;15.31;81.30
72128;DHT22;60000;51.030;7.024;2023-05-07T06:12:49;15.36;81.14
72128;DHT22;60000;51.030;7.024;2023-05-07T06:15:15;15.41;80.74
72128;DHT22;60000;51.030;7.024;2023-05-07T06:17:40;15.50;80.22
72128;DHT22;60000;51.030;7.024;2023-05-07T06:20:06;15.57;79.90
72128;DHT22;60000;51.030;7.024;2023-05-07T06:22:31;15.65;80.10
72128;DHT22;60000;51.030;7.024;2023-05-07T06:24:57;15.74;79.64
72128;DHT22;60000;51.030;7.024;2023-05-07T06:27:22;15.80;78.88
72128;DHT22;60000;51.030;7.024;2023-05-07T06:29:48;15.90;78.81
72128;DHT22;60000;51.030;7.024;2023-05-07T06:32:14;15.99;78.67
72128;DHT22;60000;51.030;7.024;2023-05-07T06:34:40;16.12;78.48
72128;DHT22;60000;51.030;7.024;2023-05-07T06:37:06;16.25;78.18
72128;DHT22;60000;51.030;7.024;2023-05-07T06:39:31;16.42;78.05
72128;DHT22;60000;51.030;7.024;2023-05-07T06:41:57;16.61;77.65
72128;DHT22;60000;51.030;7.024;2023-05-07T06:44:23;16.79;77.12
72128;DHT22;60000;51.030;7.024;2023-05-07T06:46:48;17.01;76.62
72128;DHT22;60000;51.030;7.024;2023-05-07T06:49:13;17.29;76.70
72128;DHT22;60000;51.030;7.024;2023-05-07T06:51:39;17.53;75.71
72128;DHT22;60000;51.030;7.024;2023-05-07T06:54:04;17.66;73.57
72128;DHT22;60000;51.030;7.024;2023-05-07T06:56:31;17.79;73.11
72128;DHT22;60000;51.030;7.024;2023-05-07T06:58:56;17.90;72.13
72128;DHT22;60000;51.030;7.024;2023-05-07T07:01:21;17.96;70.35
72128;DHT22;60000;51.030;7.024;2023-05-07T07:03:47;18.18;71.76
72128;DHT22;60000;51.030;7.024;2023-05-07T07:06:12;18.54;71.38
72128;DHT22;60000;51.030;7.024;2023-05-07T07:08:38;18.79;70.36
72128;DHT22;60000;51.030;7.024;2023-05-07T07:11:08;18.99;69.29
72128;DHT22;60000;51.030;7.024;2023-05-07T07:13:33;19.16;68.15
72128;DHT22;60000;51.030;7.024;2023-05-07T07:15:59;19.38;66.87
72128;DHT22;60000;51.030;7.024;2023-05-07T07:18:25;19.63;66.34
72128;DHT22;60000;51.030;7.024;2023-05-07T07:20:50;19.81;64.70
72128;DHT22;60000;51.030;7.024;2023-05-07T07:23:15;19.92;63.49
72128;DHT22;60000;51.030;7.024;2023-05-07T07:25:41;20.12;63.69
72128;DHT22;60000;51.030;7.024;2023-05-07T07:28:06;20.37;62.96
72128;DHT22;60000;51.030;7.024;2023-05-07T07:30:32;20.80;64.06
72128;DHT22;60000;51.030;7.024;2023-05-07T07:32:57;21.10;62.43
72128;DHT22;60000;51.030;7.024;2023-05-07T07:35:31;21.17;60.14
72128;DHT22;60000;51.030;7.024;2023-05-07T07:37:56;21.05;59.24
72128;DHT22;60000;51.030;7.024;2023-05-07T07:40:22;21.12;60.25
72128;DHT22;60000;51.030;7.024;2023-05-07T07:42:47;21.21;59.24
72128;DHT22;60000;51.030;7.024;2023-05-07T07:45:13;21.76;62.15
72128;DHT22;60000;51.030;7.024;2023-05-07T07:47:39;21.93;57.78
72128;DHT22;60000;51.030;7.024;2023-05-07T07:50:05;22.30;57.56
72128;DHT22;60000;51.030;7.024;2023-05-07T07:52:31;22.38;53.72
72128;DHT22;60000;51.030;7.024;2023-05-07T07:54:56;22.57;56.92
72128;DHT22;60000;51.030;7.024;2023-05-07T07:57:22;22.73;55.26
72128;DHT22;60000;51.030;7.024;2023-05-07T07:59:47;22.76;53.77
72128;DHT22;60000;51.030;7.024;2023-05-07T08:02:12;22.76;54.65
72128;DHT22;60000;51.030;7.024;2023-05-07T08:04:38;22.62;54.08
72128;DHT22;60000;51.030;7.024;2023-05-07T08:07:03;22.44;55.24
72128;DHT22;60000;51.030;7.024;2023-05-07T08:09:28;22.57;57.04
72128;DHT22;60000;51.030;7.024;2023-05-07T08:11:54;22.61;56.20
72128;DHT22;60000;51.030;7.024;2023-05-07T08:14:20;22.62;55.70
72128;DHT22;60000;51.030;7.024;2023-05-07T08:16:45;22.33;54.92
72128;DHT22;60000;51.030;7.024;2023-05-07T08:19:11;22.20;56.38
72128;DHT22;60000;51.030;7.024;2023-05-07T08:21:38;22.29;57.30
72128;DHT22;60000;51.030;7.024;2023-05-07T08:24:04;22.24;55.84
72128;DHT22;60000;51.030;7.024;2023-05-07T08:26:33;22.09;56.53
72128;DHT22;60000;51.030;7.024;2023-05-07T08:28:58;22.01;57.15
72128;DHT22;60000;51.030;7.024;2023-05-07T08:31:24;22.07;56.63
72128;DHT22;60000;51.030;7.024;2023-05-07T08:33:50;22.10;55.67
72128;DHT22;60000;51.030;7.024;2023-05-07T08:36:15;22.33;55.34
72128;DHT22;60000;51.030;7.024;2023-05-07T08:38:40;22.31;54.48
72128;DHT22;60000;51.030;7.024;2023-05-07T08:41:10;22.31;55.03
72128;DHT22;60000;51.030;7.024;2023-05-07T08:43:40;22.52;56.73
72128;DHT22;60000;51.030;7.024;2023-05-07T08:46:08;22.82;54.95
72128;DHT22;60000;51.030;7.024;2023-05-07T08:48:35;23.43;55.30
72128;DHT22;60000;51.030;7.024;2023-05-07T08:51:01;23.77;51.96
72128;DHT22;60000;51.030;7.024;2023-05-07T08:53:27;23.84;52.72
72128;DHT22;60000;51.030;7.024;2023-05-07T08:55:53;23.88;51.79
72128;DHT22;60000;51.030;7.024;2023-05-07T08:58:18;23.88;51.84
72128;DHT22;60000;51.030;7.024;2023-05-07T09:00:44;24.11;49.82
72128;DHT22;60000;51.030;7.024;2023-05-07T09:03:10;24.45;50.46
72128;DHT22;60000;51.030;7.024;2023-05-07T09:05:39;24.63;50.50
72128;DHT22;60000;51.030;7.024;2023-05-07T09:08:06;24.79;49.84
72128;DHT22;60000;51.030;7.024;2023-05-07T09:10:33;24.96;49.47
72128;DHT22;60000;51.030;7.024;2023-05-07T09:12:59;25.13;49.36
72128;DHT22;60000;51.030;7.024;2023-05-07T09:15:26;25.06;49.16
72128;DHT22;60000;51.030;7.024;2023-05-07T09:17:53;25.00;50.04
72128;DHT22;60000;51.030;7.024;2023-05-07T09:20:19;24.70;48.34
72128;DHT22;60000;51.030;7.024;2023-05-07T09:22:45;24.69;50.62
72128;DHT22;60000;51.030;7.024;2023-05-07T09:25:10;24.40;49.51
72128;DHT22;60000;51.030;7.024;2023-05-07T09:27:36;24.35;50.19
72128;DHT22;60000;51.030;7.024;2023-05-07T09:30:09;24.53;51.27
72128;DHT22;60000;51.030;7.024;2023-05-07T09:32:38;24.88;51.28
72128;DHT22;60000;51.030;7.024;2023-05-07T09:35:06;25.04;48.78
72128;DHT22;60000;51.030;7.024;2023-05-07T09:37:40;24.90;49.22
72128;DHT22;60000;51.030;7.024;2023-05-07T09:40:06;25.27;49.75
72128;DHT22;60000;51.030;7.024;2023-05-07T09:42:32;25.62;48.73
72128;DHT22;60000;51.030;7.024;2023-05-07T09:44:59;26.00;49.05
72128;DHT22;60000;51.030;7.024;2023-05-07T09:47:27;26.22;46.12
72128;DHT22;60000;51.030;7.024;2023-05-07T09:49:56;26.33;46.45
72128;DHT22;60000;51.030;7.024;2023-05-07T09:52:25;26.37;45.17
72128;DHT22;60000;51.030;7.024;2023-05-07T09:54:54;26.43;47.61
72128;DHT22;60000;51.030;7.024;2023-05-07T09:57:22;26.16;46.68
72128;DHT22;60000;51.030;7.024;2023-05-07T09:59:49;25.90;46.13
72128;DHT22;60000;51.030;7.024;2023-05-07T10:02:15;26.13;47.28
72128;DHT22;60000;51.030;7.024;2023-05-07T10:04:41;26.29;46.21
72128;DHT22;60000;51.030;7.024;2023-05-07T10:07:07;26.32;45.71
72128;DHT22;60000;51.030;7.024;2023-05-07T10:09:33;26.80;46.96
72128;DHT22;60000;51.030;7.024;2023-05-07T10:12:00;27.08;45.41
72128;DHT22;60000;51.030;7.024;2023-05-07T10:14:26;27.23;44.68
72128;DHT22;60000;51.030;7.024;2023-05-07T10:16:53;27.43;43.48
72128;DHT22;60000;51.030;7.024;2023-05-07T10:19:18;27.71;44.48
72128;DHT22;60000;51.030;7.024;2023-05-07T10:21:51;27.94;42.12
72128;DHT22;60000;51.030;7.024;2023-05-07T10:24:21;28.19;42.43
72128;DHT22;60000;51.030;7.024;2023-05-07T10:26:49;28.49;41.13
72128;DHT22;60000;51.030;7.024;2023-05-07T10:31:55;28.51;38.31
72128;DHT22;60000;51.030;7.024;2023-05-07T10:34:26;28.56;39.79
72128;DHT22;60000;51.030;7.024;2023-05-07T10:36:53;28.93;39.49
72128;DHT22;60000;51.030;7.024;2023-05-07T10:39:20;28.75;39.21
72128;DHT22;60000;51.030;7.024;2023-05-07T10:41:46;28.83;39.36
72128;DHT22;60000;51.030;7.024;2023-05-07T10:44:27;28.87;37.97
72128;DHT22;60000;51.030;7.024;2023-05-07T10:47:07;28.42;38.15
72128;DHT22;60000;51.030;7.024;2023-05-07T10:52:19;28.38;39.42
72128;DHT22;60000;51.030;7.024;2023-05-07T10:54:45;28.48;36.86
72128;DHT22;60000;51.030;7.024;2023-05-07T10:57:33;28.75;37.04
72128;DHT22;60000;51.030;7.024;2023-05-07T11:05:29;29.02;35.72
72128;DHT22;60000;51.030;7.024;2023-05-07T11:07:56;28.97;35.51
72128;DHT22;60000;51.030;7.024;2023-05-07T11:10:22;28.95;35.91
72128;DHT22;60000;51.030;7.024;2023-05-07T11:12:51;28.93;36.00
72128;DHT22;60000;51.030;7.024;2023-05-07T11:15:37;28.89;35.76
72128;DHT22;60000;51.030;7.024;2023-05-07T11:18:03;28.86;37.14
72128;DHT22;60000;51.030;7.024;2023-05-07T11:26:07;28.00;38.52
72128;DHT22;60000;51.030;7.024;2023-05-07T11:28:40;27.97;38.37
72128;DHT22;60000;51.030;7.024;2023-05-07T11:31:06;27.83;38.03
72128;DHT22;60000;51.030;7.024;2023-05-07T11:33:32;27.77;38.44
72128;DHT22;60000;51.030;7.024;2023-05-07T11:35:59;27.64;37.32
72128;DHT22;60000;51.030;7.024;2023-05-07T11:38:25;27.43;39.11
72128;DHT22;60000;51.030;7.024;2023-05-07T11:40:58;27.35;38.87
72128;DHT22;60000;51.030;7.024;2023-05-07T11:43:26;27.40;39.35
72128;DHT22;60000;51.030;7.024;2023-05-07T11:45:51;27.46;39.66
72128;DHT22;60000;51.030;7.024;2023-05-07T11:48:16;27.47;37.73
72128;DHT22;60000;51.030;7.024;2023-05-07T11:50:51;27.45;37.69
72128;DHT22;60000;51.030;7.024;2023-05-07T11:53:18;27.43;38.16
72128;DHT22;60000;51.030;7.024;2023-05-07T11:55:44;27.38;37.75
72128;DHT22;60000;51.030;7.024;2023-05-07T11:58:11;27.32;37.64
72128;DHT22;60000;51.030;7.024;2023-05-07T12:00:37;27.21;37.71
72128;DHT22;60000;51.030;7.024;2023-05-07T12:03:04;27.36;39.11
72128;DHT22;60000;51.030;7.024;2023-05-07T12:05:29;27.29;38.80
72128;DHT22;60000;51.030;7.024;2023-05-07T12:07:57;27.36;39.61
72128;DHT22;60000;51.030;7.024;2023-05-07T12:10:23;27.36;39.59
72128;DHT22;60000;51.030;7.024;2023-05-07T12:12:50;27.36;39.06
72128;DHT22;60000;51.030;7.024;2023-05-07T12:15:16;27.38;39.83
72128;DHT22;60000;51.030;7.024;2023-05-07T12:17:42;27.29;38.66
72128;DHT22;60000;51.030;7.024;2023-05-07T12:20:08;27.23;37.51
72128;DHT22;60000;51.030;7.024;2023-05-07T12:22:34;27.16;39.52
72128;DHT22;60000;51.030;7.024;2023-05-07T12:25:00;27.15;37.86
72128;DHT22;60000;51.030;7.024;2023-05-07T12:27:25;27.01;38.39
72128;DHT22;60000;51.030;7.024;2023-05-07T12:29:51;26.98;37.95
72128;DHT22;60000;51.030;7.024;2023-05-07T12:32:18;26.88;38.96
72128;DHT22;60000;51.030;7.024;2023-05-07T12:34:45;26.71;38.50
72128;DHT22;60000;51.030;7.024;2023-05-07T12:37:10;26.70;39.41
72128;DHT22;60000;51.030;7.024;2023-05-07T12:39:36;26.43;38.16
72128;DHT22;60000;51.030;7.024;2023-05-07T12:42:01;26.19;40.09
72128;DHT22;60000;51.030;7.024;2023-05-07T12:44:32;25.99;39.26
72128;DHT22;60000;51.030;7.024;2023-05-07T12:46:58;25.85;38.98
72128;DHT22;60000;51.030;7.024;2023-05-07T12:49:23;25.78;40.26
72128;DHT22;60000;51.030;7.024;2023-05-07T12:51:50;25.81;41.33
72128;DHT22;60000;51.030;7.024;2023-05-07T12:54:31;25.78;41.88
72128;DHT22;60000;51.030;7.024;2023-05-07T12:57:06;25.81;41.96
72128;DHT22;60000;51.030;7.024;2023-05-07T12:59:33;25.72;41.95
72128;DHT22;60000;51.030;7.024;2023-05-07T13:01:58;25.54;40.82
72128;DHT22;60000;51.030;7.024;2023-05-07T13:04:25;25.58;43.04
72128;DHT22;60000;51.030;7.024;2023-05-07T13:06:50;25.58;42.71
72128;DHT22;60000;51.030;7.024;2023-05-07T13:09:15;25.58;43.54
72128;DHT22;60000;51.030;7.024;2023-05-07T13:11:41;25.58;44.11
72128;DHT22;60000;51.030;7.024;2023-05-07T13:14:06;25.55;44.83
72128;DHT22;60000;51.030;7.024;2023-05-07T13:16:31;25.39;42.28
72128;DHT22;60000;51.030;7.024;2023-05-07T13:18:57;25.28;42.17
72128;DHT22;60000;51.030;7.024;2023-05-07T13:21:22;25.21;43.15
72128;DHT22;60000;51.030;7.024;2023-05-07T13:23:47;25.17;43.10
72128;DHT22;60000;51.030;7.024;2023-05-07T13:26:13;25.08;43.73
72128;DHT22;60000;51.030;7.024;2023-05-07T13:28:38;25.00;43.33
72128;DHT22;60000;51.030;7.024;2023-05-07T13:31:03;24.94;45.45
72128;DHT22;60000;51.030;7.024;2023-05-07T13:33:29;24.97;48.18
72128;DHT22;60000;51.030;7.024;2023-05-07T13:35:54;24.91;47.59
72128;DHT22;60000;51.030;7.024;2023-05-07T13:38:22;24.79;45.34
72128;DHT22;60000;51.030;7.024;2023-05-07T13:40:47;24.73;47.22
72128;DHT22;60000;51.030;7.024;2023-05-07T13:43:13;24.65;46.48
72128;DHT22;60000;51.030;7.024;2023-05-07T13:45:38;24.53;46.24
72128;DHT22;60000;51.030;7.024;2023-05-07T13:48:03;24.46;46.72
72128;DHT22;60000;51.030;7.024;2023-05-07T13:50:29;24.42;47.31
72128;DHT22;60000;51.030;7.024;2023-05-07T13:52:55;24.36;46.96
72128;DHT22;60000;51.030;7.024;2023-05-07T13:55:21;24.30;47.43
72128;DHT22;60000;51.030;7.024;2023-05-07T13:57:54;24.28;47.25
72128;DHT22;60000;51.030;7.024;2023-05-07T14:00:20;24.30;46.45
72128;DHT22;60000;51.030;7.024;2023-05-07T14:02:45;24.26;45.64
72128;DHT22;60000;51.030;7.024;2023-05-07T14:05:11;24.07;48.32
72128;DHT22;60000;51.030;7.024;2023-05-07T14:07:38;23.71;51.21
72128;DHT22;60000;51.030;7.024;2023-05-07T14:10:04;23.47;54.08
72128;DHT22;60000;51.030;7.024;2023-05-07T14:12:29;23.33;54.79
72128;DHT22;60000;51.030;7.024;2023-05-07T14:14:55;23.23;56.01
72128;DHT22;60000;51.030;7.024;2023-05-07T14:17:21;23.19;54.92
72128;DHT22;60000;51.030;7.024;2023-05-07T14:19:48;23.18;55.43
72128;DHT22;60000;51.030;7.024;2023-05-07T14:22:13;23.10;54.95
72128;DHT22;60000;51.030;7.024;2023-05-07T14:24:40;23.02;54.24
72128;DHT22;60000;51.030;7.024;2023-05-07T14:27:05;22.89;53.32
72128;DHT22;60000;51.030;7.024;2023-05-07T14:29:31;22.84;54.06
72128;DHT22;60000;51.030;7.024;2023-05-07T14:31:56;22.78;53.46
72128;DHT22;60000;51.030;7.024;2023-05-07T14:34:21;22.67;52.56
72128;DHT22;60000;51.030;7.024;2023-05-07T14:36:47;22.62;53.52
72128;DHT22;60000;51.030;7.024;2023-05-07T14:39:12;22.67;53.88
72128;DHT22;60000;51.030;7.024;2023-05-07T14:41:38;22.68;54.60
72128;DHT22;60000;51.030;7.024;2023-05-07T14:44:03;22.64;53.85
72128;DHT22;60000;51.030;7.024;2023-05-07T14:46:29;22.58;53.49
72128;DHT22;60000;51.030;7.024;2023-05-07T14:48:56;22.65;54.89
72128;DHT22;60000;51.030;7.024;2023-05-07T14:51:21;22.58;56.62
72128;DHT22;60000;51.030;7.024;2023-05-07T14:53:47;22.41;57.94
72128;DHT22;60000;51.030;7.024;2023-05-07T14:56:12;22.29;59.42
72128;DHT22;60000;51.030;7.024;2023-05-07T14:58:38;22.20;59.55
72128;DHT22;60000;51.030;7.024;2023-05-07T15:01:03;22.10;59.95
72128;DHT22;60000;51.030;7.024;2023-05-07T15:03:28;21.85;59.54
72128;DHT22;60000;51.030;7.024;2023-05-07T15:05:54;21.75;57.77
72128;DHT22;60000;51.030;7.024;2023-05-07T15:08:20;21.53;59.31
72128;DHT22;60000;51.030;7.024;2023-05-07T15:10:45;21.56;60.22
72128;DHT22;60000;51.030;7.024;2023-05-07T15:13:11;21.49;60.12
72128;DHT22;60000;51.030;7.024;2023-05-07T15:15:38;21.37;60.76
72128;DHT22;60000;51.030;7.024;2023-05-07T15:18:04;21.25;61.86
72128;DHT22;60000;51.030;7.024;2023-05-07T15:20:30;21.08;61.78
72128;DHT22;60000;51.030;7.024;2023-05-07T15:22:55;20.95;62.90
72128;DHT22;60000;51.030;7.024;2023-05-07T15:25:21;21.00;63.78
72128;DHT22;60000;51.030;7.024;2023-05-07T15:27:46;21.15;64.23
72128;DHT22;60000;51.030;7.024;2023-05-07T15:30:13;21.28;64.71
72128;DHT22;60000;51.030;7.024;2023-05-07T15:32:39;21.38;64.64
72128;DHT22;60000;51.030;7.024;2023-05-07T15:35:05;21.39;65.25
72128;DHT22;60000;51.030;7.024;2023-05-07T15:37:31;21.45;65.39
72128;DHT22;60000;51.030;7.024;2023-05-07T15:39:56;21.49;65.20